createdAt,value
2018-08-31T00:02:22.985Z,95568.83
2018-08-31T00:05:02.848Z,95565.27
2018-08-31T00:07:48.723Z,95569.02
2018-08-31T00:11:26.151Z,95565.10
2018-08-31T00:13:54.960Z,95574.66
2018-08-31T00:16:23.657Z,95579.74
2018-08-31T00:18:52.533Z,95580.52
2018-08-31T00:21:21.265Z,95581.47
2018-08-31T00:24:00.975Z,95579.27
2018-08-31T00:26:40.722Z,95575.30
2018-08-31T00:29:52.739Z,95575.80
2018-08-31T00:33:02.803Z,95569.67
2018-08-31T00:36:18.094Z,95575.70
2018-08-31T00:41:01.856Z,95566.80
2018-08-31T00:43:50.176Z,95566.11
2018-08-31T00:46:18.979Z,95563.73
2018-08-31T00:48:47.819Z,95494.47
2018-08-31T00:51:17.973Z,95571.05
2018-08-31T00:53:46.812Z,95570.97
2018-08-31T00:56:15.661Z,95566.64
2018-08-31T00:58:44.528Z,95568.19
2018-08-31T01:01:13.281Z,95571.02
2018-08-31T01:03:42.084Z,95570.58
2018-08-31T01:06:10.911Z,95577.00
2018-08-31T01:08:39.734Z,95576.11
2018-08-31T01:11:08.496Z,95580.96
2018-08-31T01:13:38.020Z,95580.95
2018-08-31T01:16:07.089Z,95590.11
2018-08-31T01:18:36.029Z,95582.98
2018-08-31T01:21:05.172Z,95583.73
2018-08-31T01:23:34.408Z,95586.63
2018-08-31T01:26:03.216Z,95588.45
2018-08-31T01:28:31.992Z,95597.63
2018-08-31T01:31:00.711Z,95590.97
2018-08-31T01:33:29.612Z,95582.64
2018-08-31T01:35:58.495Z,95579.44
2018-08-31T01:38:27.258Z,95575.94
2018-08-31T01:40:56.039Z,95578.16
2018-08-31T01:43:24.772Z,95579.71
2018-08-31T01:45:53.530Z,95563.22
2018-08-31T01:48:22.320Z,95584.35
2018-08-31T01:50:56.331Z,95579.92
2018-08-31T01:53:28.646Z,95575.60
2018-08-31T01:55:57.524Z,95584.61
2018-08-31T01:58:26.373Z,95589.64
2018-08-31T02:00:55.238Z,95588.45
2018-08-31T02:03:23.980Z,95588.64
2018-08-31T02:05:52.707Z,95586.86
2018-08-31T02:08:21.412Z,95601.34
2018-08-31T02:10:50.214Z,95580.89
2018-08-31T02:13:19.048Z,95582.50
2018-08-31T02:15:47.877Z,95579.03
2018-08-31T02:18:16.602Z,95573.22
2018-08-31T02:21:08.436Z,95580.92
2018-08-31T02:23:52.652Z,95582.50
2018-08-31T02:29:05.929Z,95581.86
2018-08-31T02:31:34.675Z,95577.84
2018-08-31T02:34:03.494Z,95579.93
2018-08-31T02:36:32.339Z,95583.40
2018-08-31T02:39:01.232Z,95582.20
2018-08-31T02:41:29.945Z,95579.71
2018-08-31T02:43:58.709Z,95586.76
2018-08-31T02:46:28.248Z,95577.75
2018-08-31T02:48:57.136Z,95572.55
2018-08-31T02:51:25.960Z,95577.92
2018-08-31T02:53:54.739Z,95574.79
2018-08-31T02:56:23.609Z,95579.30
2018-08-31T02:58:52.437Z,95584.58
2018-08-31T03:01:21.223Z,95584.44
2018-08-31T03:03:49.982Z,95577.44
2018-08-31T03:06:18.827Z,95585.72
2018-08-31T03:08:47.687Z,95581.08
2018-08-31T03:11:16.619Z,95586.84
2018-08-31T03:13:45.384Z,95585.09
2018-08-31T03:16:14.125Z,95576.41
2018-08-31T03:18:42.839Z,95580.26
2018-08-31T03:21:11.582Z,95579.85
2018-08-31T03:23:40.384Z,95594.71
2018-08-31T03:26:09.152Z,95595.04
2018-08-31T03:28:37.827Z,95594.41
2018-08-31T03:31:06.641Z,95592.00
2018-08-31T03:33:35.469Z,95587.23
2018-08-31T03:36:04.330Z,95592.34
2018-08-31T03:38:33.300Z,95589.95
2018-08-31T03:41:02.118Z,95593.83
2018-08-31T03:43:31.055Z,95600.69
2018-08-31T03:45:59.970Z,95602.63
2018-08-31T03:48:28.831Z,95603.73
2018-08-31T03:50:57.650Z,95602.97
2018-08-31T03:53:26.439Z,95603.89
2018-08-31T03:55:55.258Z,95598.28
2018-08-31T03:58:24.058Z,95594.18
2018-08-31T04:00:52.931Z,95591.61
2018-08-31T04:03:21.625Z,95596.59
2018-08-31T04:05:50.455Z,95599.53
2018-08-31T04:08:19.255Z,95603.64
2018-08-31T04:10:48.003Z,95602.33
2018-08-31T04:13:16.748Z,95555.14
2018-08-31T04:15:45.530Z,95598.01
2018-08-31T04:18:14.337Z,95599.16
2018-08-31T04:20:51.888Z,95601.61
2018-08-31T04:23:20.586Z,95605.91
2018-08-31T04:25:49.299Z,95602.82
2018-08-31T04:28:18.022Z,95606.41
2018-08-31T04:30:46.842Z,95609.93
2018-08-31T04:33:15.794Z,95611.30
2018-08-31T04:35:44.553Z,95624.77
2018-08-31T04:38:13.328Z,95625.00
2018-08-31T04:40:42.121Z,95624.86
2018-08-31T04:43:10.824Z,95620.27
2018-08-31T04:45:39.532Z,95629.39
2018-08-31T04:48:08.429Z,95619.89
2018-08-31T04:50:37.254Z,95623.71
2018-08-31T04:53:06.150Z,95626.48
2018-08-31T04:55:35.012Z,95627.95
2018-08-31T04:58:03.793Z,95627.48
2018-08-31T05:00:32.727Z,95627.95
2018-08-31T05:03:01.509Z,95597.97
2018-08-31T05:05:30.390Z,95621.75
2018-08-31T05:07:59.119Z,95634.88
2018-08-31T05:10:27.992Z,95633.11
2018-08-31T05:12:56.840Z,95632.70
2018-08-31T05:15:25.592Z,95642.68
2018-08-31T05:17:54.494Z,95642.03
2018-08-31T05:20:23.651Z,95640.50
2018-08-31T05:22:52.620Z,95639.55
2018-08-31T05:25:21.360Z,95640.94
2018-08-31T05:27:50.143Z,95647.41
2018-08-31T05:30:18.956Z,95644.09
2018-08-31T05:32:47.759Z,95644.88
2018-08-31T05:35:17.411Z,95643.88
2018-08-31T05:37:46.560Z,95643.18
2018-08-31T05:40:15.884Z,95644.98
2018-08-31T05:42:44.821Z,95637.88
2018-08-31T05:45:13.636Z,95641.41
2018-08-31T05:47:42.495Z,95643.27
2018-08-31T05:50:11.533Z,95641.41
2018-08-31T05:52:40.399Z,95645.17
2018-08-31T05:55:09.303Z,95648.64
2018-08-31T05:57:38.177Z,95643.92
2018-08-31T06:00:07.294Z,95647.48
2018-08-31T06:02:36.518Z,95647.27
2018-08-31T06:05:05.241Z,95642.28
2018-08-31T06:07:33.953Z,95645.05
2018-08-31T06:10:02.753Z,95646.38
2018-08-31T06:12:31.635Z,95645.88
2018-08-31T06:15:00.394Z,95650.17
2018-08-31T06:17:29.247Z,95649.82
2018-08-31T06:19:58.025Z,95651.20
2018-08-31T06:22:26.946Z,95642.95
2018-08-31T06:24:55.928Z,95658.81
2018-08-31T06:27:24.931Z,95646.70
2018-08-31T06:29:53.770Z,95644.95
2018-08-31T06:32:22.815Z,95644.23
2018-08-31T06:34:51.999Z,95640.41
2018-08-31T06:37:20.811Z,95645.45
2018-08-31T06:39:49.808Z,95644.47
2018-08-31T06:42:18.620Z,95643.88
2018-08-31T06:44:47.508Z,95650.52
2018-08-31T06:47:16.269Z,95647.73
2018-08-31T06:49:44.996Z,95640.63
2018-08-31T06:52:13.659Z,95638.28
2018-08-31T06:54:42.418Z,95636.70
2018-08-31T06:57:11.498Z,95639.31
2018-08-31T06:59:40.170Z,95634.37
2018-08-31T07:02:08.940Z,95627.14
2018-08-31T07:04:38.426Z,95631.35
2018-08-31T07:07:07.223Z,95631.55
2018-08-31T07:09:35.942Z,95629.66
2018-08-31T07:12:04.834Z,95639.13
2018-08-31T07:14:33.563Z,95634.84
2018-08-31T07:17:02.470Z,95635.78
2018-08-31T07:19:31.527Z,95641.24
2018-08-31T07:22:00.362Z,95640.94
2018-08-31T07:24:29.362Z,95643.95
2018-08-31T07:26:58.216Z,95633.25
2018-08-31T07:29:26.994Z,95631.70
2018-08-31T07:31:55.733Z,95638.96
2018-08-31T07:34:24.479Z,95644.04
2018-08-31T07:36:53.190Z,95631.98
2018-08-31T07:39:21.863Z,95632.28
2018-08-31T07:41:50.574Z,95641.33
2018-08-31T07:44:19.348Z,95638.49
2018-08-31T07:46:48.183Z,95631.08
2018-08-31T07:49:17.038Z,95634.71
2018-08-31T07:51:45.904Z,95628.39
2018-08-31T07:54:14.752Z,95622.09
2018-08-31T07:56:43.768Z,95625.16
2018-08-31T07:59:12.436Z,95625.77
2018-08-31T08:01:41.248Z,95625.76
2018-08-31T08:04:10.049Z,95618.51
2018-08-31T08:06:38.863Z,95624.52
2018-08-31T08:09:09.136Z,95620.30
2018-08-31T08:11:37.905Z,95623.55
2018-08-31T08:14:06.722Z,95613.31
2018-08-31T08:16:35.547Z,95622.74
2018-08-31T08:19:04.766Z,95615.10
2018-08-31T08:21:33.539Z,95618.67
2018-08-31T08:24:02.296Z,95614.61
2018-08-31T08:26:31.110Z,95621.16
2018-08-31T08:28:59.874Z,95610.92
2018-08-31T08:31:28.563Z,95610.84
2018-08-31T08:33:57.410Z,95596.70
2018-08-31T08:36:26.223Z,95592.31
2018-08-31T08:38:54.929Z,95608.64
2018-08-31T08:41:23.668Z,95600.30
2018-08-31T08:43:52.478Z,95584.96
2018-08-31T08:46:21.263Z,95594.72
2018-08-31T08:48:50.193Z,95590.58
2018-08-31T08:51:18.860Z,95556.41
2018-08-31T08:53:47.645Z,95588.38
2018-08-31T08:56:16.410Z,95572.39
2018-08-31T08:58:45.404Z,95584.13
2018-08-31T09:01:14.563Z,95588.23
2018-08-31T09:03:43.709Z,95571.93
2018-08-31T09:06:12.561Z,95567.75
2018-08-31T09:08:41.280Z,95574.70
2018-08-31T09:11:10.080Z,95576.91
2018-08-31T09:13:38.932Z,95565.65
2018-08-31T09:16:13.814Z,95573.27
2018-08-31T09:18:42.531Z,95570.86
2018-08-31T09:21:11.466Z,95576.58
2018-08-31T09:23:40.151Z,95574.72
2018-08-31T09:26:11.419Z,95572.17
2018-08-31T09:28:40.174Z,95571.41
2018-08-31T09:31:12.288Z,95563.55
2018-08-31T09:33:41.193Z,95573.60
2018-08-31T09:36:10.921Z,95565.75
2018-08-31T09:38:39.716Z,95564.50
2018-08-31T09:41:08.802Z,95562.41
2018-08-31T09:43:37.610Z,95570.35
2018-08-31T09:46:06.390Z,95559.81
2018-08-31T09:48:35.118Z,95567.13
2018-08-31T09:51:03.879Z,95560.43
2018-08-31T09:53:32.936Z,95549.62
2018-08-31T09:56:01.606Z,95551.22
2018-08-31T09:58:30.338Z,95551.11
2018-08-31T10:01:04.150Z,95553.85
2018-08-31T10:03:33.263Z,95557.92
2018-08-31T10:06:02.030Z,95554.12
2018-08-31T10:08:30.897Z,95562.25
2018-08-31T10:10:59.683Z,95559.48
2018-08-31T10:13:28.527Z,95549.43
2018-08-31T10:15:57.414Z,95555.54
2018-08-31T10:18:26.599Z,95552.67
2018-08-31T10:20:55.394Z,95553.00
2018-08-31T10:23:24.261Z,95550.11
2018-08-31T10:25:53.129Z,95551.59
2018-08-31T10:28:21.860Z,95555.38
2018-08-31T10:30:50.711Z,95558.28
2018-08-31T10:33:19.489Z,95551.55
2018-08-31T10:35:48.168Z,95549.55
2018-08-31T10:38:17.069Z,95551.94
2018-08-31T10:40:45.855Z,95539.89
2018-08-31T10:43:14.662Z,95547.23
2018-08-31T10:45:43.373Z,95551.28
2018-08-31T10:48:12.118Z,95545.81
2018-08-31T10:50:40.882Z,95542.37
2018-08-31T10:53:09.683Z,95542.37
2018-08-31T10:55:38.363Z,95511.05
2018-08-31T10:58:07.467Z,95525.17
2018-08-31T11:00:36.451Z,95531.55
2018-08-31T11:03:05.410Z,95534.55
2018-08-31T11:05:34.195Z,95534.36
2018-08-31T11:08:02.983Z,95537.30
2018-08-31T11:10:31.653Z,95534.24
2018-08-31T11:13:00.363Z,95273.34
2018-08-31T11:15:29.236Z,95522.49
2018-08-31T11:17:57.964Z,95532.02
2018-08-31T11:20:26.822Z,95516.12
2018-08-31T11:22:55.635Z,95517.52
2018-08-31T11:25:24.498Z,95524.26
2018-08-31T11:27:53.338Z,95511.30
2018-08-31T11:30:22.103Z,95508.26
2018-08-31T11:32:51.071Z,95524.63
2018-08-31T11:35:19.935Z,95510.08
2018-08-31T11:37:48.666Z,95504.89
2018-08-31T11:40:17.352Z,95507.39
2018-08-31T11:42:46.166Z,95510.05
2018-08-31T11:45:15.102Z,95501.10
2018-08-31T11:47:43.839Z,95505.16
2018-08-31T11:50:12.639Z,95495.23
2018-08-31T11:52:41.305Z,95498.55
2018-08-31T11:55:10.051Z,95499.53
2018-08-31T11:57:38.667Z,95492.38
2018-08-31T12:00:07.638Z,95489.11
2018-08-31T12:02:36.439Z,95483.44
2018-08-31T12:05:05.309Z,95479.51
2018-08-31T12:07:34.090Z,95454.84
2018-08-31T12:10:02.955Z,95483.45
2018-08-31T12:12:32.507Z,95485.64
2018-08-31T12:15:01.221Z,95476.32
2018-08-31T12:17:30.665Z,95484.23
2018-08-31T12:19:59.363Z,95478.88
2018-08-31T12:22:28.134Z,95466.95
2018-08-31T12:24:56.790Z,95457.67
2018-08-31T12:27:25.576Z,95468.20
2018-08-31T12:29:54.493Z,95465.37
2018-08-31T12:32:23.269Z,95456.91
2018-08-31T12:34:51.958Z,95461.66
2018-08-31T12:37:21.330Z,95457.45
2018-08-31T12:39:50.254Z,95462.59
2018-08-31T12:42:19.016Z,95453.75
2018-08-31T12:44:47.752Z,95459.16
2018-08-31T12:47:16.544Z,95456.16
2018-08-31T12:49:45.410Z,95450.48
2018-08-31T12:52:14.198Z,95443.73
2018-08-31T12:54:42.974Z,95435.44
2018-08-31T12:57:11.659Z,95445.00
2018-08-31T12:59:44.749Z,95447.51
2018-08-31T13:02:13.538Z,95446.75
2018-08-31T13:04:42.278Z,95444.84
2018-08-31T13:07:11.000Z,94829.00
2018-08-31T13:09:39.739Z,95436.71
2018-08-31T13:12:08.426Z,95438.30
2018-08-31T13:14:37.111Z,95431.55
2018-08-31T13:17:06.027Z,95433.84
2018-08-31T13:19:34.687Z,95435.23
2018-08-31T13:22:03.557Z,95438.02
2018-08-31T13:24:32.387Z,95443.74
2018-08-31T13:27:01.199Z,95437.72
2018-08-31T13:29:29.966Z,95437.84
2018-08-31T13:31:58.785Z,95433.79
2018-08-31T13:34:27.484Z,95424.30
2018-08-31T13:36:56.317Z,95427.58
2018-08-31T13:39:25.067Z,95439.96
2018-08-31T13:41:53.785Z,95439.11
2018-08-31T13:44:22.601Z,95424.50
2018-08-31T13:46:51.424Z,95436.23
2018-08-31T13:49:20.139Z,95423.75
2018-08-31T13:51:48.931Z,95425.93
2018-08-31T13:54:17.601Z,95423.08
2018-08-31T13:56:46.355Z,95436.55
2018-08-31T13:59:15.040Z,95423.04
2018-08-31T14:01:43.891Z,95429.80
2018-08-31T14:04:12.885Z,95423.45
2018-08-31T14:06:41.580Z,95419.89
2018-08-31T14:09:10.403Z,95420.98
2018-08-31T14:11:39.130Z,95435.48
2018-08-31T14:14:07.856Z,95417.77
2018-08-31T14:16:37.440Z,95416.22
2018-08-31T14:19:07.931Z,95420.91
2018-08-31T14:21:36.674Z,95430.97
2018-08-31T14:24:05.857Z,95330.55
2018-08-31T14:26:34.718Z,95427.28
2018-08-31T14:29:03.414Z,95427.98
2018-08-31T14:31:32.127Z,95433.34
2018-08-31T14:34:01.031Z,95415.41
2018-08-31T14:36:29.840Z,95420.94
2018-08-31T14:38:58.630Z,95421.35
2018-08-31T14:41:27.350Z,95428.63
2018-08-31T14:43:56.179Z,95421.35
2018-08-31T14:46:24.955Z,95423.30
2018-08-31T14:48:53.713Z,95422.84
2018-08-31T14:51:22.435Z,95415.16
2018-08-31T14:53:51.145Z,95423.67
2018-08-31T14:56:19.930Z,95425.27
2018-08-31T14:58:51.102Z,95417.09
2018-08-31T15:01:20.039Z,95416.16
2018-08-31T15:03:48.882Z,95408.91
2018-08-31T15:06:21.424Z,95423.60
2018-08-31T15:08:50.807Z,95420.72
2018-08-31T15:11:19.611Z,95416.17
2018-08-31T15:13:48.373Z,95409.97
2018-08-31T15:16:17.173Z,95410.14
2018-08-31T15:18:45.859Z,95420.17
2018-08-31T15:21:14.537Z,95409.08
2018-08-31T15:23:43.358Z,95410.98
2018-08-31T15:26:12.079Z,95415.61
2018-08-31T15:28:40.775Z,95414.97
2018-08-31T15:31:09.562Z,95416.44
2018-08-31T15:33:38.283Z,95425.34
2018-08-31T15:36:06.927Z,95420.11
2018-08-31T15:38:35.753Z,95437.72
2018-08-31T15:41:04.635Z,95450.36
2018-08-31T15:43:33.298Z,95443.47
2018-08-31T15:46:02.018Z,95448.70
2018-08-31T15:48:30.682Z,95447.31
2018-08-31T15:50:59.463Z,95451.88
2018-08-31T15:53:28.203Z,95455.99
2018-08-31T15:55:56.895Z,95463.67
2018-08-31T15:58:25.732Z,95455.72
2018-08-31T16:00:54.444Z,95458.78
2018-08-31T16:03:23.130Z,95462.80
2018-08-31T16:05:52.003Z,95472.34
2018-08-31T16:08:20.822Z,95463.68
2018-08-31T16:10:49.578Z,95466.63
2018-08-31T16:13:18.346Z,95471.50
2018-08-31T16:15:47.046Z,95466.31
2018-08-31T16:18:15.794Z,95464.00
2018-08-31T16:20:44.558Z,95466.86
2018-08-31T16:23:13.323Z,95464.73
2018-08-31T16:25:42.233Z,95460.82
2018-08-31T16:28:10.989Z,95455.72
2018-08-31T16:30:39.822Z,95459.98
2018-08-31T16:33:08.570Z,95461.03
2018-08-31T16:35:37.390Z,95455.79
2018-08-31T16:38:06.186Z,95462.94
2018-08-31T16:40:35.022Z,95456.09
2018-08-31T16:43:03.802Z,95465.72
2018-08-31T16:45:32.638Z,95462.67
2018-08-31T16:48:01.542Z,95468.75
2018-08-31T16:50:30.214Z,95468.61
2018-08-31T16:52:58.960Z,95464.13
2018-08-31T16:55:42.246Z,95467.60
2018-08-31T16:58:10.958Z,95471.91
2018-08-31T17:00:39.711Z,95476.26
2018-08-31T17:03:08.526Z,95484.75
2018-08-31T17:05:37.377Z,95490.37
2018-08-31T17:08:06.069Z,95494.63
2018-08-31T17:10:34.820Z,95499.45
2018-08-31T17:13:03.590Z,95502.77
2018-08-31T17:15:32.287Z,95503.70
2018-08-31T17:18:00.946Z,95500.84
2018-08-31T17:20:29.808Z,95509.51
2018-08-31T17:22:58.494Z,95503.09
2018-08-31T17:25:27.198Z,95519.69
2018-08-31T17:28:01.180Z,95516.89
2018-08-31T17:30:29.901Z,95514.45
2018-08-31T17:33:04.099Z,95524.04
2018-08-31T17:35:38.038Z,95522.56
2018-08-31T17:38:06.727Z,95522.33
2018-08-31T17:40:35.426Z,95521.78
2018-08-31T17:43:18.686Z,95529.94
2018-08-31T17:45:47.496Z,95530.48
2018-08-31T17:48:16.301Z,95538.25
2018-08-31T17:50:45.008Z,95532.52
2018-08-31T17:53:13.857Z,95527.86
2018-08-31T17:55:42.611Z,95532.15
2018-08-31T17:58:11.397Z,95530.23
2018-08-31T18:00:40.143Z,95533.05
2018-08-31T18:03:08.835Z,95534.51
2018-08-31T18:05:37.514Z,95537.70
2018-08-31T18:08:06.226Z,95527.30
2018-08-31T18:10:34.879Z,95533.86
2018-08-31T18:13:03.678Z,95529.36
2018-08-31T18:15:32.497Z,95531.22
2018-08-31T18:18:01.178Z,95528.89
2018-08-31T18:20:29.863Z,95533.52
2018-08-31T18:22:58.611Z,95531.23
2018-08-31T18:25:27.395Z,95533.70
2018-08-31T18:27:56.170Z,95541.30
2018-08-31T18:30:24.878Z,95538.48
2018-08-31T18:32:53.585Z,95542.39
2018-08-31T18:35:22.401Z,95550.13
2018-08-31T18:37:51.101Z,95551.63
2018-08-31T18:40:19.834Z,95547.41
2018-08-31T18:42:48.739Z,95548.06
2018-08-31T18:45:17.459Z,95544.75
2018-08-31T18:47:46.158Z,95547.16
2018-08-31T18:50:15.034Z,95556.33
2018-08-31T18:52:43.863Z,95552.54
2018-08-31T18:55:12.539Z,95555.09
2018-08-31T18:57:41.416Z,95553.98
2018-08-31T19:00:12.798Z,95561.70
2018-08-31T19:02:41.526Z,95555.27
2018-08-31T19:05:10.274Z,95561.02
2018-08-31T19:07:39.222Z,95561.67
2018-08-31T19:10:08.050Z,95556.19
2018-08-31T19:12:36.917Z,95554.28
2018-08-31T19:15:05.816Z,95554.91
2018-08-31T19:17:36.522Z,95562.45
2018-08-31T19:20:05.249Z,95557.16
2018-08-31T19:22:33.941Z,95556.80
2018-08-31T19:25:02.675Z,95558.47
2018-08-31T19:27:31.463Z,95556.78
2018-08-31T19:30:00.297Z,95556.73
2018-08-31T19:32:29.105Z,95553.61
2018-08-31T19:34:57.852Z,95550.59
2018-08-31T19:37:26.531Z,95552.05
2018-08-31T19:39:55.378Z,95548.20
2018-08-31T19:42:24.444Z,95552.63
2018-08-31T19:44:53.181Z,95546.64
2018-08-31T19:47:21.945Z,95544.92
2018-08-31T19:49:51.401Z,95544.36
2018-08-31T19:52:20.094Z,95545.80
2018-08-31T19:54:48.775Z,95551.52
2018-08-31T19:57:17.492Z,95546.47
2018-08-31T19:59:46.118Z,95539.04
2018-08-31T20:02:14.845Z,95536.72
2018-08-31T20:04:43.658Z,95531.43
2018-08-31T20:07:12.457Z,95537.15
2018-08-31T20:09:41.175Z,95541.49
2018-08-31T20:12:09.904Z,95542.30
2018-08-31T20:14:38.629Z,95553.72
2018-08-31T20:17:07.403Z,95551.17
2018-08-31T20:19:36.261Z,95556.09
2018-08-31T20:22:07.732Z,95553.52
2018-08-31T20:24:36.442Z,95552.51
2018-08-31T20:27:05.202Z,95559.02
2018-08-31T20:29:34.016Z,95561.39
2018-08-31T20:32:02.933Z,95554.94
2018-08-31T20:34:31.676Z,95563.44
2018-08-31T20:37:00.425Z,95570.54
2018-08-31T20:39:29.136Z,95567.03
2018-08-31T20:41:57.804Z,95568.03
2018-08-31T20:44:26.515Z,95568.58
2018-08-31T20:46:55.350Z,95572.33
2018-08-31T20:49:24.170Z,95564.70
2018-08-31T20:51:52.890Z,95561.54
2018-08-31T20:54:21.592Z,95560.58
2018-08-31T20:56:50.255Z,95562.13
2018-08-31T20:59:18.925Z,95562.55
2018-08-31T21:01:47.595Z,95567.26
2018-08-31T21:04:16.281Z,95566.88
2018-08-31T21:06:45.092Z,95570.42
2018-08-31T21:09:13.794Z,95569.22
2018-08-31T21:11:42.527Z,95571.17
2018-08-31T21:14:11.260Z,95568.84
2018-08-31T21:16:40.057Z,95566.30
2018-08-31T21:19:08.940Z,95564.92
2018-08-31T21:21:37.728Z,95571.42
2018-08-31T21:24:06.586Z,95570.67
2018-08-31T21:26:35.362Z,95568.92
2018-08-31T21:29:04.105Z,95573.66
2018-08-31T21:31:32.861Z,95569.75
2018-08-31T21:34:01.629Z,95564.28
2018-08-31T21:36:30.447Z,95567.23
2018-08-31T21:38:59.196Z,95569.64
2018-08-31T21:41:27.927Z,95566.89
2018-08-31T21:43:56.776Z,95566.50
2018-08-31T21:46:25.537Z,95575.16
2018-08-31T21:48:54.434Z,95565.54
2018-08-31T21:51:23.249Z,95568.70
2018-08-31T21:53:52.077Z,95567.52
2018-08-31T21:56:20.793Z,95571.67
2018-08-31T21:58:49.782Z,95573.27
2018-08-31T22:01:23.674Z,95574.22
2018-08-31T22:03:52.512Z,95577.38
2018-08-31T22:06:21.357Z,95582.69
2018-08-31T22:08:50.075Z,95580.33
2018-08-31T22:11:18.810Z,95585.06
2018-08-31T22:13:47.621Z,95579.95
2018-08-31T22:16:16.568Z,95568.03
2018-08-31T22:18:45.367Z,95579.77
2018-08-31T22:21:14.269Z,95586.83
2018-08-31T22:23:43.072Z,95581.36
2018-08-31T22:26:12.122Z,95581.56
2018-08-31T22:28:41.004Z,95580.98
2018-08-31T22:31:09.788Z,95582.73
2018-08-31T22:33:38.603Z,95575.67
2018-08-31T22:36:07.370Z,95573.53
2018-08-31T22:38:36.110Z,95574.69
2018-08-31T22:41:04.920Z,95577.42
2018-08-31T22:43:39.001Z,95589.55
2018-08-31T22:46:07.700Z,95585.63
2018-08-31T22:48:36.427Z,95586.44
2018-08-31T22:51:05.177Z,95586.82
2018-08-31T22:53:33.926Z,95586.44
2018-08-31T22:56:02.712Z,95583.48
2018-08-31T22:58:31.619Z,95589.94
2018-08-31T23:01:00.472Z,95592.89
2018-08-31T23:03:29.225Z,95591.91
2018-08-31T23:05:58.074Z,95589.16
2018-08-31T23:08:26.853Z,95584.06
2018-08-31T23:10:55.699Z,95589.78
2018-08-31T23:13:24.628Z,95589.41
2018-08-31T23:15:53.578Z,95588.80
2018-08-31T23:18:22.376Z,95593.12
2018-08-31T23:20:51.315Z,95586.86
2018-08-31T23:23:25.155Z,95588.58
2018-08-31T23:25:53.828Z,95588.37
2018-08-31T23:28:22.844Z,95586.23
2018-08-31T23:30:51.623Z,95584.86
2018-08-31T23:33:20.476Z,95582.70
2018-08-31T23:35:49.201Z,95587.59
2018-08-31T23:38:17.874Z,95593.83
2018-08-31T23:40:46.555Z,95592.28
2018-08-31T23:43:15.249Z,95596.77
2018-08-31T23:45:44.056Z,95598.72
2018-08-31T23:48:12.883Z,95597.94
2018-08-31T23:50:41.643Z,95605.16
2018-08-31T23:53:10.395Z,95601.38
2018-08-31T23:55:39.115Z,95599.58
2018-08-31T23:58:07.859Z,95605.64
